Time;durP1;ratioP1;P1;durP2;ratioP2;P2;SDS_P1;SDS_P2;PMS_P1;PMS_P2;Temp;Humidity;BMP_temperature;BMP_pressure;BME280_temperature;BME280_humidity;BME280_pressure;Samples;Min_cycle;Max_cycle;Signal;HPM_P1;HPM_P2
2022/04/01 00:02:28;;;;;;;16.42;11.90;;;7.40;99.90;;;;;;5798340;24;20586;-87
2022/04/01 00:33:17;;;;;;;18.77;10.90;;;7.00;99.90;;;;;;6075597;23;20185;-87
2022/04/01 00:46:29;;;;;;;16.00;10.55;;;7.30;99.90;;;;;;5987499;23;20198;-87
2022/04/01 00:49:58;;;;;;;;;;;;;;;;;;;;;
2022/04/01 00:53:06;;;;;;;15.77;10.30;;;7.30;99.90;;;;;;5965565;24;20190;-87
2022/04/01 01:18:55;;;;;;;14.25;9.43;;;7.00;99.90;;;;;;6072931;23;20551;-86
2022/04/01 01:35:16;;;;;;;12.07;8.30;;;6.60;99.90;;;;;;5913113;24;20197;-87
2022/04/01 02:20:57;;;;;;;14.15;8.68;;;6.40;99.90;;;;;;6048950;23;20190;-86
2022/04/01 02:23:57;;;;;;;15.48;9.10;;;6.40;99.90;;;;;;6049100;23;20177;-86
2022/04/01 02:27:07;;;;;;;14.50;10.23;;;6.50;99.90;;;;;;6056656;23;20196;-87
2022/04/01 02:33:28;;;;;;;16.02;9.35;;;6.80;99.90;;;;;;6019512;23;20182;-88
2022/04/01 02:36:33;;;;;;;15.23;10.80;;;6.20;99.90;;;;;;6050572;23;20625;-87
2022/04/01 02:39:08;;;;;;;15.70;9.77;;;6.70;99.90;;;;;;6048900;23;20237;-87
2022/04/01 02:41:38;;;;;;;14.68;9.80;;;6.90;99.90;;;;;;6049980;23;20241;-87
2022/04/01 02:44:21;;;;;;;15.63;10.57;;;6.80;99.90;;;;;;6049713;23;20659;-87
2022/04/01 02:46:57;;;;;;;11.45;6.15;;;6.50;99.90;;;;;;6047386;23;20198;-87
2022/04/01 02:49:34;;;;;;;14.68;9.52;;;6.70;99.90;;;;;;6046762;23;20205;-87
2022/04/01 02:52:11;;;;;;;13.68;8.68;;;6.60;99.90;;;;;;6053887;23;20181;-87
2022/04/01 02:54:43;;;;;;;17.15;10.05;;;6.70;99.90;;;;;;6048441;23;20193;-87
2022/04/01 02:57:17;;;;;;;13.93;9.10;;;6.40;99.90;;;;;;6050321;23;20620;-87
2022/04/01 03:00:01;;;;;;;16.25;9.15;;;6.90;99.90;;;;;;6050796;23;20202;-86
2022/04/01 03:03:06;;;;;;;16.27;10.35;;;6.80;99.90;;;;;;6053273;23;20192;-87
2022/04/01 03:05:52;;;;;;;14.65;9.65;;;6.70;99.90;;;;;;6049229;23;20208;-87
2022/04/01 03:08:41;;;;;;;16.30;10.98;;;6.90;99.90;;;;;;6046293;23;20734;-87
2022/04/01 03:11:20;;;;;;;14.93;9.80;;;6.80;99.90;;;;;;6045769;23;20174;-87
2022/04/01 03:17:05;;;;;;;15.38;8.63;;;6.80;99.90;;;;;;6057045;23;20178;-87
2022/04/01 03:19:35;;;;;;;14.05;8.95;;;6.60;99.90;;;;;;6048886;23;20583;-87
2022/04/01 03:22:11;;;;;;;15.40;11.45;;;6.40;99.90;;;;;;6051241;23;20182;-88
2022/04/01 03:24:45;;;;;;;13.65;7.97;;;6.00;99.90;;;;;;6046869;23;20193;-87
2022/04/01 03:27:15;;;;;;;17.42;10.88;;;6.40;99.90;;;;;;6047864;23;20238;-88
2022/04/01 03:29:46;;;;;;;15.60;10.05;;;6.30;99.90;;;;;;6052634;23;20202;-88
2022/04/01 03:32:28;;;;;;;12.95;8.40;;;6.30;99.90;;;;;;6047518;23;20182;-87
2022/04/01 03:35:14;;;;;;;16.33;10.50;;;6.30;99.90;;;;;;6048436;23;20233;-88
2022/04/01 03:37:45;;;;;;;15.50;10.00;;;6.20;99.90;;;;;;6048899;23;20222;-88
2022/04/01 03:40:17;;;;;;;16.15;10.75;;;6.20;99.90;;;;;;6047819;23;20534;-86
2022/04/01 03:43:01;;;;;;;17.23;12.20;;;6.20;99.90;;;;;;6049481;23;20182;-88
2022/04/01 03:45:35;;;;;;;14.90;8.68;;;6.40;99.90;;;;;;6049600;23;20181;-88
2022/04/01 03:48:27;;;;;;;16.13;12.00;;;6.40;99.90;;;;;;6047184;23;20226;-87
2022/04/01 04:03:18;;;;;;;18.83;12.07;;;6.30;99.90;;;;;;6046722;23;20193;-87
2022/04/01 04:06:02;;;;;;;19.08;12.35;;;6.30;99.90;;;;;;6051117;23;20168;-87
2022/04/01 04:09:13;;;;;;;19.27;12.63;;;6.20;99.90;;;;;;6052540;23;20221;-86
2022/04/01 04:11:48;;;;;;;18.13;11.68;;;6.30;99.90;;;;;;6020317;23;20625;-87
2022/04/01 04:14:27;;;;;;;19.75;12.38;;;6.40;99.90;;;;;;6066853;23;20213;-86
2022/04/01 04:17:39;;;;;;;18.75;12.70;;;6.20;99.90;;;;;;6062306;23;20260;-86
2022/04/01 04:20:38;;;;;;;17.73;11.98;;;6.20;99.90;;;;;;6056087;23;20214;-87
2022/04/01 04:23:50;;;;;;;18.02;10.07;;;5.90;99.90;;;;;;6051268;23;20193;-87
2022/04/01 04:26:53;;;;;;;15.75;11.23;;;6.60;99.90;;;;;;6040730;23;20197;-86
2022/04/01 04:29:32;;;;;;;17.23;10.38;;;6.50;99.90;;;;;;6047788;23;20209;-86
2022/04/01 04:35:05;;;;;;;15.43;10.18;;;6.20;99.90;;;;;;6056764;23;20694;-86
2022/04/01 04:37:35;;;;;;;12.50;6.03;;;6.10;99.90;;;;;;6107499;23;20173;-85
2022/04/01 04:40:04;;;;;;;13.43;7.05;;;6.20;99.90;;;;;;6106599;23;20189;-86
2022/04/01 04:42:34;;;;;;;13.70;9.25;;;5.90;99.90;;;;;;6107418;23;20185;-84
2022/04/01 04:45:01;;;;;;;17.60;10.18;;;5.50;99.90;;;;;;6107632;23;20227;-85
2022/04/01 04:47:29;;;;;;;16.02;10.63;;;5.90;99.90;;;;;;6118492;23;20200;-87
2022/04/01 04:49:57;;;;;;;18.48;10.95;;;6.20;99.90;;;;;;6123997;23;20200;-85
2022/04/01 04:52:30;;;;;;;15.35;7.55;;;6.10;99.90;;;;;;6121649;23;20597;-87
2022/04/01 04:54:57;;;;;;;17.38;11.30;;;5.70;99.90;;;;;;6110769;23;20204;-87
2022/04/01 04:57:27;;;;;;;15.90;10.65;;;6.00;99.90;;;;;;6109104;23;20235;-87
2022/04/01 04:59:58;;;;;;;15.20;9.70;;;6.00;99.90;;;;;;6107033;23;20177;-86
2022/04/01 05:02:39;;;;;;;17.10;10.13;;;6.10;99.90;;;;;;6109366;23;20180;-87
2022/04/01 05:05:15;;;;;;;17.92;10.88;;;6.10;99.90;;;;;;6110536;23;20260;-87
2022/04/01 05:07:51;;;;;;;11.57;7.38;;;5.90;99.90;;;;;;6106722;23;20185;-86
2022/04/01 05:10:25;;;;;;;14.93;9.98;;;5.70;99.90;;;;;;6107660;23;20219;-87
2022/04/01 05:12:58;;;;;;;16.40;10.35;;;5.90;99.90;;;;;;6104677;23;20200;-86
2022/04/01 05:15:29;;;;;;;19.02;11.05;;;5.70;99.90;;;;;;6104655;23;20205;-87
2022/04/01 05:18:09;;;;;;;19.52;12.15;;;6.00;99.90;;;;;;6106219;23;20497;-86
2022/04/01 05:20:39;;;;;;;16.90;11.32;;;5.90;99.90;;;;;;6105195;23;20169;-86
2022/04/01 05:23:13;;;;;;;17.05;10.57;;;5.90;99.90;;;;;;6108800;23;20192;-86
2022/04/01 05:25:45;;;;;;;17.92;11.23;;;6.00;99.90;;;;;;6116389;23;20307;-86
2022/04/01 05:28:22;;;;;;;16.20;10.02;;;6.00;99.90;;;;;;6106706;23;20185;-85
2022/04/01 05:31:01;;;;;;;14.73;9.57;;;6.00;99.90;;;;;;6110788;23;20172;-86
2022/04/01 05:33:34;;;;;;;14.18;10.02;;;5.70;99.90;;;;;;6108198;23;20169;-85
2022/04/01 05:36:04;;;;;;;16.02;10.68;;;5.80;99.90;;;;;;6106540;23;20333;-84
2022/04/01 05:38:34;;;;;;;16.42;10.48;;;5.50;99.90;;;;;;6111786;23;20221;-84
2022/04/01 05:41:02;;;;;;;13.50;9.80;;;5.80;99.90;;;;;;6124502;23;20149;-85
2022/04/01 05:43:31;;;;;;;16.08;10.02;;;5.80;99.90;;;;;;6116960;23;20177;-84
2022/04/01 05:45:59;;;;;;;14.38;10.02;;;6.00;99.90;;;;;;6106593;23;20204;-86
2022/04/01 05:48:28;;;;;;;14.77;10.00;;;5.80;99.90;;;;;;6105241;23;20184;-87
2022/04/01 05:50:56;;;;;;;15.30;11.13;;;5.50;99.90;;;;;;6108224;23;20212;-87
2022/04/01 05:53:25;;;;;;;16.50;10.60;;;5.80;99.90;;;;;;6106418;23;20272;-84
2022/04/01 05:55:55;;;;;;;14.85;9.32;;;5.50;99.90;;;;;;6103670;23;20259;-86
2022/04/01 05:58:22;;;;;;;15.40;9.70;;;5.40;99.90;;;;;;6106933;23;20181;-84
2022/04/01 06:01:02;;;;;;;15.55;10.27;;;6.00;99.90;;;;;;6106313;23;20681;-86
2022/04/01 06:04:10;;;;;;;14.50;9.48;;;5.60;99.90;;;;;;6110550;23;20303;-86
2022/04/01 06:06:41;;;;;;;13.68;9.57;;;5.60;99.90;;;;;;6112324;23;20212;-86
2022/04/01 06:09:20;;;;;;;15.73;9.70;;;5.10;99.90;;;;;;6119877;23;20224;-86
2022/04/01 06:11:57;;;;;;;15.38;10.30;;;5.60;99.90;;;;;;6115861;23;20180;-87
2022/04/01 06:14:34;;;;;;;13.00;9.27;;;5.60;99.90;;;;;;6112385;23;20173;-85
2022/04/01 06:17:22;;;;;;;14.23;10.18;;;5.90;99.90;;;;;;6111486;23;20165;-86
2022/04/01 06:19:52;;;;;;;16.17;10.73;;;5.70;99.90;;;;;;6112476;23;20161;-86
2022/04/01 06:22:20;;;;;;;17.88;11.45;;;5.40;99.90;;;;;;6123925;23;20197;-86
2022/04/01 06:25:01;;;;;;;18.60;12.82;;;5.40;99.90;;;;;;6116429;23;20231;-84
2022/04/01 06:27:34;;;;;;;15.68;10.40;;;5.50;99.90;;;;;;6106339;23;20640;-86
2022/04/01 06:30:05;;;;;;;16.13;10.05;;;5.50;99.90;;;;;;6105407;23;20169;-85
2022/04/01 06:32:59;;;;;;;10.35;6.25;;;5.80;99.90;;;;;;6104716;23;20170;-86
2022/04/01 06:35:29;;;;;;;15.70;9.80;;;5.70;99.90;;;;;;6108725;23;20213;-86
2022/04/01 06:37:59;;;;;;;15.52;10.32;;;5.40;99.90;;;;;;6111758;23;20543;-87
2022/04/01 06:40:30;;;;;;;17.42;10.82;;;5.50;99.90;;;;;;6123670;23;20157;-86
2022/04/01 06:43:04;;;;;;;16.55;11.40;;;5.10;99.90;;;;;;6120935;23;20169;-87
2022/04/01 06:45:31;;;;;;;17.08;11.10;;;5.40;99.90;;;;;;6119474;23;20188;-86
2022/04/01 06:48:00;;;;;;;18.50;11.20;;;5.00;99.90;;;;;;6121462;23;20205;-85
2022/04/01 06:50:30;;;;;;;20.48;11.75;;;5.30;99.90;;;;;;6108101;23;20182;-85
2022/04/01 06:52:57;;;;;;;18.92;11.65;;;5.20;99.90;;;;;;6107767;23;20221;-86
2022/04/01 06:55:24;;;;;;;18.33;11.55;;;5.30;99.90;;;;;;6105854;23;20271;-85
2022/04/01 06:57:55;;;;;;;14.93;10.63;;;5.40;99.90;;;;;;6111887;23;20166;-85
2022/04/01 07:00:22;;;;;;;18.38;12.77;;;5.20;99.90;;;;;;6106664;23;20181;-87
2022/04/01 07:02:52;;;;;;;17.63;12.20;;;5.20;99.90;;;;;;6109902;23;20248;-87
2022/04/01 07:05:20;;;;;;;16.80;11.43;;;5.20;99.90;;;;;;6112389;23;20201;-84
2022/04/01 07:07:47;;;;;;;16.35;9.95;;;5.40;99.90;;;;;;6112360;23;20197;-86
2022/04/01 07:10:17;;;;;;;16.40;11.45;;;5.40;99.90;;;;;;6109646;23;20185;-87
2022/04/01 07:12:45;;;;;;;17.52;11.77;;;5.40;99.90;;;;;;6113189;23;20196;-87
2022/04/01 07:15:13;;;;;;;18.58;11.93;;;5.40;99.90;;;;;;6109402;23;20205;-85
2022/04/01 07:17:42;;;;;;;16.58;11.43;;;5.50;99.90;;;;;;6106298;23;20181;-86
2022/04/01 07:20:11;;;;;;;16.33;11.27;;;5.50;99.90;;;;;;6111587;23;20212;-86
2022/04/01 07:22:40;;;;;;;16.70;11.25;;;5.40;99.90;;;;;;6112859;23;20181;-87
2022/04/01 07:25:09;;;;;;;16.70;10.90;;;5.20;99.90;;;;;;6111726;23;20201;-87
2022/04/01 07:27:39;;;;;;;18.58;11.70;;;5.60;99.90;;;;;;6116982;23;20252;-87
2022/04/01 07:30:08;;;;;;;15.80;11.73;;;5.40;99.90;;;;;;6112867;23;20232;-86
2022/04/01 07:32:36;;;;;;;17.52;12.30;;;5.60;99.90;;;;;;6108328;23;20184;-87
2022/04/01 07:35:10;;;;;;;17.80;11.15;;;5.60;99.90;;;;;;6121240;23;20223;-86
2022/04/01 07:37:39;;;;;;;16.48;11.25;;;5.70;99.90;;;;;;6117117;23;20172;-86
2022/04/01 07:40:07;;;;;;;16.10;11.50;;;5.60;99.90;;;;;;6108521;23;20181;-86
2022/04/01 07:42:35;;;;;;;20.88;13.30;;;5.50;99.90;;;;;;6107133;23;20188;-86
2022/04/01 07:45:04;;;;;;;27.38;17.17;;;5.60;99.90;;;;;;6106204;23;20220;-86
2022/04/01 07:47:33;;;;;;;18.50;12.55;;;5.40;99.90;;;;;;6105503;23;20241;-85
2022/04/01 07:50:03;;;;;;;19.60;13.48;;;5.10;99.90;;;;;;6105429;23;20184;-87
2022/04/01 07:52:32;;;;;;;16.95;12.63;;;5.50;99.90;;;;;;6106838;23;20200;-85
2022/04/01 07:55:02;;;;;;;16.25;12.20;;;5.40;99.90;;;;;;6107060;23;20205;-87
2022/04/01 07:57:32;;;;;;;19.60;13.25;;;5.30;99.90;;;;;;6116170;23;20176;-85
2022/04/01 07:59:59;;;;;;;18.10;11.85;;;5.30;99.90;;;;;;6123438;23;20176;-86
2022/04/01 08:02:25;;;;;;;18.13;12.02;;;5.50;99.90;;;;;;6120554;23;20218;-84
2022/04/01 08:04:52;;;;;;;15.52;12.18;;;5.60;99.90;;;;;;6111795;23;20552;-87
2022/04/01 08:07:22;;;;;;;18.33;10.43;;;5.60;99.90;;;;;;6114758;23;20201;-86
2022/04/01 08:09:50;;;;;;;19.60;13.95;;;5.70;99.90;;;;;;6114388;23;20172;-86
2022/04/01 08:12:21;;;;;;;19.25;12.20;;;5.60;99.90;;;;;;6109048;23;20169;-86
2022/04/01 08:15:11;;;;;;;16.35;11.20;;;5.70;99.90;;;;;;6116890;23;20221;-85
2022/04/01 08:17:38;;;;;;;18.60;12.32;;;6.00;99.90;;;;;;6123456;23;20165;-85
2022/04/01 08:20:07;;;;;;;16.98;11.82;;;5.80;99.90;;;;;;6121407;23;20185;-86
2022/04/01 08:22:34;;;;;;;19.15;12.27;;;5.70;99.90;;;;;;6119302;23;20192;-86
2022/04/01 08:25:01;;;;;;;17.52;12.68;;;5.40;99.90;;;;;;6108506;23;20197;-87
2022/04/01 08:27:29;;;;;;;20.77;13.50;;;5.50;99.90;;;;;;6104746;23;20259;-87
2022/04/01 08:29:59;;;;;;;17.98;11.45;;;5.60;99.90;;;;;;6106636;23;20267;-86
2022/04/01 08:32:26;;;;;;;15.68;10.05;;;5.60;99.90;;;;;;6107696;23;20181;-86
2022/04/01 08:34:54;;;;;;;16.17;12.32;;;5.80;99.90;;;;;;6108259;23;20208;-86
2022/04/01 08:37:20;;;;;;;17.10;12.45;;;5.60;99.90;;;;;;6109187;23;20181;-85
2022/04/01 08:39:47;;;;;;;19.45;13.85;;;5.70;99.90;;;;;;6107079;23;20212;-86
2022/04/01 08:42:15;;;;;;;18.60;13.50;;;5.20;99.90;;;;;;6107610;23;20252;-87
2022/04/01 08:44:46;;;;;;;19.52;14.10;;;5.70;99.90;;;;;;6107047;23;20207;-87
2022/04/01 08:47:13;;;;;;;17.83;12.15;;;5.40;99.90;;;;;;6106860;23;20244;-86
2022/04/01 08:49:40;;;;;;;15.75;10.32;;;5.50;99.90;;;;;;6107399;23;20204;-86
2022/04/01 08:52:10;;;;;;;16.00;11.82;;;5.60;99.90;;;;;;6113543;23;20228;-86
2022/04/01 08:54:37;;;;;;;18.13;12.68;;;5.50;99.90;;;;;;6118037;23;20181;-85
2022/04/01 08:57:08;;;;;;;18.25;12.90;;;5.50;99.90;;;;;;6117164;23;20185;-87
2022/04/01 08:59:38;;;;;;;16.42;11.35;;;5.50;99.90;;;;;;6117066;23;20248;-87
2022/04/01 09:02:08;;;;;;;17.33;11.43;;;5.70;99.90;;;;;;6112414;23;20209;-86
2022/04/01 09:04:35;;;;;;;18.15;11.88;;;5.20;99.90;;;;;;6113464;23;20656;-86
2022/04/01 09:07:12;;;;;;;17.98;10.30;;;5.30;99.90;;;;;;6119378;23;20248;-86
2022/04/01 09:09:40;;;;;;;13.85;10.57;;;5.10;99.90;;;;;;6119155;23;20176;-85
2022/04/01 09:12:12;;;;;;;13.88;8.80;;;4.90;99.90;;;;;;6118330;23;20196;-86
2022/04/01 09:14:40;;;;;;;16.58;10.98;;;5.20;99.90;;;;;;6112199;23;20169;-87
2022/04/01 09:17:11;;;;;;;17.13;12.15;;;5.00;99.90;;;;;;6112185;23;20215;-86
2022/04/01 09:19:39;;;;;;;14.95;10.23;;;5.20;99.90;;;;;;6114994;23;20213;-86
2022/04/01 09:22:18;;;;;;;16.58;11.10;;;5.40;99.90;;;;;;6113098;23;20192;-87
2022/04/01 09:24:56;;;;;;;13.70;10.20;;;5.30;99.90;;;;;;6112275;23;20285;-86
2022/04/01 09:27:44;;;;;;;17.30;11.20;;;4.80;99.90;;;;;;6110530;23;20320;-87
2022/04/01 09:30:13;;;;;;;9.95;4.50;;;4.90;99.90;;;;;;6110356;23;20234;-84
2022/04/01 09:32:47;;;;;;;15.90;9.45;;;5.20;99.90;;;;;;6110496;23;20184;-87
2022/04/01 09:35:18;;;;;;;15.05;9.57;;;5.00;99.90;;;;;;6108282;23;20213;-86
2022/04/01 09:37:46;;;;;;;14.43;10.20;;;4.90;99.90;;;;;;6109613;23;20185;-87
2022/04/01 09:40:17;;;;;;;17.88;11.32;;;4.50;99.90;;;;;;6109040;23;20192;-86
2022/04/01 09:42:47;;;;;;;16.63;9.40;;;4.70;99.90;;;;;;6109370;23;20165;-87
2022/04/01 09:45:19;;;;;;;16.67;9.98;;;4.80;99.90;;;;;;6108418;23;20267;-87
2022/04/01 09:47:58;;;;;;;15.65;8.65;;;4.70;99.90;;;;;;6107634;23;20208;-86
2022/04/01 09:50:28;;;;;;;15.13;9.50;;;4.80;99.90;;;;;;6108217;23;20200;-85
2022/04/01 09:52:55;;;;;;;16.20;11.27;;;4.80;99.90;;;;;;6108240;23;20192;-86
2022/04/01 09:55:23;;;;;;;18.42;11.25;;;4.30;99.90;;;;;;6113548;23;20205;-86
2022/04/01 09:57:51;;;;;;;22.98;14.68;;;4.40;99.90;;;;;;6111280;23;20510;-84
2022/04/01 10:00:18;;;;;;;18.58;12.07;;;5.20;99.90;;;;;;6106809;23;20211;-85
2022/04/01 10:02:46;;;;;;;12.15;6.60;;;5.00;99.90;;;;;;6109379;23;20259;-86
2022/04/01 10:05:14;;;;;;;18.73;12.30;;;5.20;99.90;;;;;;6115359;23;20205;-86
2022/04/01 10:07:41;;;;;;;16.42;10.02;;;4.70;99.90;;;;;;6108286;23;20237;-87
2022/04/01 10:10:09;;;;;;;16.23;11.75;;;4.80;99.90;;;;;;6111362;23;20177;-86
2022/04/01 10:12:42;;;;;;;11.75;7.72;;;5.00;99.90;;;;;;6111769;23;20185;-86
2022/04/01 10:15:11;;;;;;;14.98;9.75;;;4.90;99.90;;;;;;6109851;23;20205;-85
2022/04/01 10:17:40;;;;;;;13.50;10.05;;;4.80;99.90;;;;;;6109176;23;20196;-86
2022/04/01 10:20:09;;;;;;;12.98;8.40;;;4.90;99.90;;;;;;6111771;23;20191;-87
2022/04/01 10:22:37;;;;;;;14.43;9.27;;;5.00;99.90;;;;;;6119349;23;20188;-88
2022/04/01 10:25:13;;;;;;;12.05;8.25;;;5.00;99.90;;;;;;6115871;23;20212;-87
2022/04/01 10:27:43;;;;;;;10.38;5.55;;;5.00;99.90;;;;;;6114798;23;20169;-87
2022/04/01 10:30:18;;;;;;;5.45;3.08;;;5.10;99.90;;;;;;6116485;23;20208;-86
2022/04/01 10:32:47;;;;;;;7.57;4.95;;;4.80;99.90;;;;;;6115236;23;20191;-85
2022/04/01 10:43:18;;;;;;;7.00;4.65;;;4.80;99.90;;;;;;6102599;23;20271;-86
2022/04/01 10:52:48;;;;;;;7.97;3.90;;;4.60;99.90;;;;;;6104469;23;20483;-86
2022/04/01 10:55:26;;;;;;;7.80;5.13;;;4.80;99.90;;;;;;6105482;23;21520;-87
2022/04/01 10:58:36;;;;;;;7.20;4.57;;;4.80;99.90;;;;;;6106225;23;20187;-85
2022/04/01 13:50:47;;;;;;;;;;;;;;;;;;;;;
2022/04/01 13:56:26;;;;;;;13.38;8.95;;;4.40;99.90;;;;;;6105567;23;20219;-86
2022/04/01 14:15:32;;;;;;;11.75;7.72;;;4.30;99.90;;;;;;6015179;23;20195;-86
2022/04/01 14:28:06;;;;;;;11.77;8.35;;;4.00;99.90;;;;;;6076543;23;20225;-86
2022/04/01 14:30:42;;;;;;;11.20;7.72;;;4.30;99.90;;;;;;6051817;23;20188;-85
2022/04/01 14:33:48;;;;;;;12.35;7.45;;;4.00;99.90;;;;;;6075878;23;20256;-85
2022/04/01 14:39:20;;;;;;;;;;;;;;;;;;;;;
2022/04/01 14:45:37;;;;;;;9.57;7.30;;;3.80;99.90;;;;;;6045884;23;20228;-85
2022/04/01 14:48:06;;;;;;;10.50;7.13;;;3.70;99.90;;;;;;6077725;23;20178;-84
2022/04/01 14:50:36;;;;;;;13.77;8.77;;;3.90;99.90;;;;;;6076926;23;20189;-85
2022/04/01 14:53:54;;;;;;;13.68;9.88;;;3.50;99.90;;;;;;6076840;23;20181;-85
2022/04/01 14:59:48;;;;;;;16.67;11.40;;;4.00;99.90;;;;;;5917778;24;20208;-85
2022/04/01 15:02:25;;;;;;;13.93;8.75;;;4.20;99.90;;;;;;5965948;24;20180;-85
2022/04/01 15:05:13;;;;;;;10.70;6.97;;;4.30;99.90;;;;;;6060460;23;20233;-85
2022/04/01 15:08:15;;;;;;;12.65;6.72;;;4.00;99.90;;;;;;6077360;23;20233;-83
2022/04/01 15:10:48;;;;;;;15.23;11.57;;;3.70;99.90;;;;;;5989492;24;20186;-85
2022/04/01 15:13:18;;;;;;;16.55;11.52;;;3.90;99.90;;;;;;5988726;24;20184;-85
2022/04/01 15:16:08;;;;;;;22.15;9.23;;;4.10;99.90;;;;;;6035205;23;20237;-84
2022/04/01 15:18:52;;;;;;;10.90;6.88;;;3.90;99.90;;;;;;6080876;23;20173;-85
2022/04/01 15:21:20;;;;;;;15.27;10.25;;;3.80;99.90;;;;;;6090335;23;20280;-85
2022/04/01 15:23:52;;;;;;;12.52;7.82;;;3.70;99.90;;;;;;6085385;23;20181;-83
2022/04/01 15:29:20;;;;;;;17.70;12.02;;;3.60;99.90;;;;;;6087207;23;20208;-84
2022/04/01 15:32:01;;;;;;;16.88;11.05;;;3.40;99.90;;;;;;6089244;23;20181;-84
2022/04/01 15:34:35;;;;;;;19.52;11.15;;;3.70;99.90;;;;;;6088330;23;20181;-83
2022/04/01 15:37:07;;;;;;;18.88;13.00;;;3.70;99.90;;;;;;6078766;23;20285;-84
2022/04/01 15:39:39;;;;;;;15.85;12.98;;;3.70;99.90;;;;;;6084690;23;20185;-84
2022/04/01 15:42:09;;;;;;;16.10;10.90;;;3.80;99.90;;;;;;6084539;23;20205;-85
2022/04/01 15:44:36;;;;;;;18.88;13.20;;;3.90;99.90;;;;;;6077524;23;20201;-83
2022/04/01 15:47:09;;;;;;;10.50;6.30;;;3.80;99.90;;;;;;6076353;23;20205;-83
2022/04/01 15:49:39;;;;;;;14.20;7.20;;;3.70;99.90;;;;;;6076603;23;20190;-84
2022/04/01 15:54:59;;;;;;;17.77;12.15;;;3.60;99.90;;;;;;6073978;23;20216;-83
2022/04/01 15:57:32;;;;;;;10.85;7.60;;;3.60;99.90;;;;;;6074595;23;20181;-83
2022/04/01 16:00:00;;;;;;;13.32;7.53;;;3.30;99.90;;;;;;6079070;23;20192;-83
2022/04/01 16:02:35;;;;;;;16.23;12.07;;;3.60;99.90;;;;;;6090062;23;20192;-83
2022/04/01 16:05:08;;;;;;;9.18;5.90;;;3.60;99.90;;;;;;6092047;23;20156;-84
2022/04/01 16:07:51;;;;;;;10.95;5.82;;;3.70;99.90;;;;;;6079925;23;20185;-84
2022/04/01 16:10:21;;;;;;;14.38;9.88;;;3.60;99.90;;;;;;6076243;23;20212;-84
2022/04/01 16:12:51;;;;;;;17.40;11.27;;;3.70;99.90;;;;;;6082185;23;20181;-84
2022/04/01 16:15:25;;;;;;;15.63;11.02;;;3.60;99.90;;;;;;6089747;23;20229;-84
2022/04/01 16:17:55;;;;;;;12.40;8.45;;;3.80;99.90;;;;;;6076328;23;20229;-84
2022/04/01 16:20:30;;;;;;;10.82;7.60;;;3.40;99.90;;;;;;6076218;23;20193;-84
2022/04/01 16:22:57;;;;;;;18.38;12.75;;;3.90;99.90;;;;;;6078000;23;20162;-84
2022/04/01 16:25:25;;;;;;;18.52;12.02;;;3.70;99.90;;;;;;6076579;23;20547;-84
2022/04/01 16:27:56;;;;;;;16.65;11.55;;;3.70;99.90;;;;;;6074676;23;20229;-84
2022/04/01 16:30:25;;;;;;;16.63;11.57;;;3.90;99.90;;;;;;6072119;23;20205;-84
2022/04/01 16:32:53;;;;;;;16.73;11.48;;;3.80;99.90;;;;;;6070798;23;20181;-83
2022/04/01 16:35:20;;;;;;;14.50;10.02;;;3.50;99.90;;;;;;6070564;23;20221;-82
2022/04/01 16:37:48;;;;;;;19.30;13.50;;;3.90;99.90;;;;;;6095111;23;20566;-86
2022/04/01 16:40:15;;;;;;;18.55;12.10;;;3.90;99.90;;;;;;6102157;23;20177;-84
2022/04/01 16:42:42;;;;;;;19.42;13.30;;;3.70;99.90;;;;;;6103585;23;20245;-84
2022/04/01 16:45:10;;;;;;;28.90;18.55;;;3.70;99.90;;;;;;6104634;23;20184;-85
2022/04/01 16:47:37;;;;;;;15.60;9.25;;;3.90;99.90;;;;;;6108139;23;20205;-86
2022/04/01 16:50:05;;;;;;;14.80;9.45;;;3.90;99.90;;;;;;6119311;23;20250;-84
2022/04/01 16:52:32;;;;;;;19.80;13.80;;;3.70;99.90;;;;;;6125691;23;20161;-85
2022/04/01 16:55:00;;;;;;;20.50;12.63;;;3.60;99.90;;;;;;6115933;23;20620;-87
2022/04/01 16:57:27;;;;;;;16.13;10.27;;;3.60;99.90;;;;;;6106955;23;20483;-86
2022/04/01 16:59:57;;;;;;;16.90;11.48;;;3.80;99.90;;;;;;6109163;23;20218;-86
2022/04/01 17:02:24;;;;;;;18.75;13.35;;;3.70;99.90;;;;;;6108784;23;20652;-87
2022/04/01 17:04:51;;;;;;;13.23;6.57;;;3.40;99.90;;;;;;6113116;23;20237;-86
2022/04/01 17:12:57;;;;;;;19.08;13.73;;;3.70;99.90;;;;;;6067151;23;20180;-86
2022/04/01 17:15:24;;;;;;;23.33;15.27;;;3.70;99.90;;;;;;6111262;23;20236;-86
2022/04/01 17:17:53;;;;;;;17.88;11.10;;;3.80;99.90;;;;;;6103670;23;20589;-87
2022/04/01 17:20:22;;;;;;;20.27;11.80;;;3.70;99.90;;;;;;6103313;23;20268;-87
2022/04/01 17:22:49;;;;;;;20.73;12.02;;;3.70;99.90;;;;;;6105103;23;20319;-86
2022/04/01 17:25:19;;;;;;;12.43;8.45;;;3.70;99.90;;;;;;6108154;23;20184;-87
2022/04/01 17:27:50;;;;;;;13.50;8.70;;;3.60;99.90;;;;;;6106790;23;20276;-86
2022/04/01 17:30:17;;;;;;;16.20;11.88;;;3.70;99.90;;;;;;6106305;23;20592;-87
2022/04/01 17:32:50;;;;;;;15.02;10.65;;;3.20;99.90;;;;;;6103973;23;20204;-86
2022/04/01 17:35:22;;;;;;;22.98;13.80;;;3.50;99.90;;;;;;6105407;23;20172;-87
2022/04/01 17:37:51;;;;;;;17.70;9.63;;;3.30;99.90;;;;;;6106675;23;20219;-87
2022/04/01 17:40:26;;;;;;;16.65;12.02;;;3.70;99.90;;;;;;6104054;23;20260;-87
2022/04/01 17:42:55;;;;;;;17.80;12.27;;;3.60;99.90;;;;;;6104333;23;20161;-87
2022/04/01 17:45:24;;;;;;;17.48;13.00;;;3.50;99.90;;;;;;6103755;23;20264;-87
2022/04/01 17:47:51;;;;;;;14.23;9.15;;;3.50;99.90;;;;;;6114209;23;20284;-86
2022/04/01 17:50:18;;;;;;;18.75;12.32;;;3.00;99.90;;;;;;6116273;23;20197;-84
2022/04/01 17:52:45;;;;;;;15.85;11.65;;;3.30;99.90;;;;;;6116691;23;20192;-87
2022/04/01 17:55:12;;;;;;;18.17;11.90;;;3.10;99.90;;;;;;6115983;23;20513;-86
2022/04/01 17:57:43;;;;;;;14.05;9.15;;;3.40;99.90;;;;;;6110794;23;20207;-85
2022/04/01 18:00:13;;;;;;;15.02;11.60;;;3.30;99.90;;;;;;6105471;23;20196;-87
2022/04/01 18:02:46;;;;;;;15.95;11.30;;;3.30;99.90;;;;;;6079212;23;20188;-87
2022/04/01 18:05:15;;;;;;;17.23;12.70;;;3.40;99.90;;;;;;6104019;23;20169;-87
2022/04/01 18:07:44;;;;;;;17.25;11.98;;;3.40;99.90;;;;;;6103856;23;20201;-85
2022/04/01 18:10:11;;;;;;;10.90;6.82;;;3.50;99.90;;;;;;6102983;23;20201;-85
2022/04/01 18:12:40;;;;;;;18.17;13.02;;;3.40;99.90;;;;;;6103158;23;20529;-86
2022/04/01 18:15:09;;;;;;;19.90;13.70;;;3.30;99.90;;;;;;6101904;23;20239;-86
2022/04/01 18:17:37;;;;;;;12.05;8.10;;;3.50;99.90;;;;;;6103695;23;20200;-86
2022/04/01 18:20:05;;;;;;;10.05;5.80;;;3.30;99.90;;;;;;6103519;23;20236;-87
2022/04/01 18:22:33;;;;;;;16.80;10.82;;;3.20;99.90;;;;;;6105355;23;20212;-87
2022/04/01 18:25:12;;;;;;;18.00;12.00;;;2.90;99.90;;;;;;6109150;23;20208;-86
2022/04/01 18:27:43;;;;;;;17.10;13.32;;;3.00;99.90;;;;;;6115603;23;20205;-86
2022/04/01 18:30:12;;;;;;;13.57;7.88;;;2.80;99.90;;;;;;6122047;23;20187;-87
2022/04/01 18:32:49;;;;;;;17.35;10.90;;;3.50;99.90;;;;;;6123893;23;20233;-86
2022/04/01 18:35:21;;;;;;;16.33;10.57;;;3.10;99.90;;;;;;6123799;23;20165;-86
2022/04/01 18:37:49;;;;;;;21.30;12.70;;;3.20;99.90;;;;;;6123409;23;20239;-85
2022/04/01 18:40:19;;;;;;;16.05;9.68;;;3.10;99.90;;;;;;6116766;23;20225;-87
2022/04/01 18:42:48;;;;;;;19.70;12.05;;;2.70;99.90;;;;;;6108394;23;20184;-86
2022/04/01 18:45:15;;;;;;;19.33;14.80;;;3.20;99.90;;;;;;6105013;23;20184;-85
2022/04/01 18:47:43;;;;;;;17.35;13.35;;;3.10;99.90;;;;;;6104527;23;20204;-87
2022/04/01 18:50:10;;;;;;;21.15;13.90;;;3.00;99.90;;;;;;6103819;23;20211;-86
2022/04/01 18:52:39;;;;;;;18.60;11.50;;;3.10;99.90;;;;;;6103896;23;20185;-86
2022/04/01 18:55:07;;;;;;;19.02;13.07;;;3.20;99.90;;;;;;6104048;23;20495;-87
2022/04/01 18:57:40;;;;;;;20.10;12.25;;;3.20;99.90;;;;;;6102515;23;20201;-86
2022/04/01 19:00:12;;;;;;;22.08;16.10;;;3.10;99.90;;;;;;6102839;23;20165;-84
2022/04/01 19:02:49;;;;;;;23.75;16.42;;;2.90;99.90;;;;;;6103068;23;20220;-85
2022/04/01 19:05:25;;;;;;;16.75;9.10;;;3.00;99.90;;;;;;6103653;23;20204;-87
2022/04/01 19:08:03;;;;;;;19.80;12.15;;;3.00;99.90;;;;;;6105497;23;20277;-87
2022/04/01 19:10:38;;;;;;;16.60;12.80;;;3.10;99.90;;;;;;6108479;23;20696;-86
2022/04/01 19:13:06;;;;;;;22.35;16.20;;;2.30;99.90;;;;;;6106681;23;20236;-86
2022/04/01 19:15:51;;;;;;;20.05;15.00;;;2.40;99.90;;;;;;6105157;23;20176;-86
2022/04/01 19:18:19;;;;;;;20.85;14.95;;;2.70;99.90;;;;;;6100009;23;20196;-84
2022/04/01 19:20:47;;;;;;;23.60;17.35;;;2.50;99.90;;;;;;6117923;23;20179;-87
2022/04/01 19:23:14;;;;;;;15.60;11.30;;;2.70;99.90;;;;;;6113877;23;20307;-86
2022/04/01 19:25:44;;;;;;;14.65;9.65;;;2.40;99.90;;;;;;6113657;23;20723;-87
2022/04/01 19:28:12;;;;;;;22.50;16.73;;;2.80;99.90;;;;;;6114396;23;20201;-85
2022/04/01 19:30:44;;;;;;;22.25;12.48;;;2.80;99.90;;;;;;6106655;23;20674;-86
2022/04/01 19:33:12;;;;;;;21.35;15.25;;;2.40;99.90;;;;;;6108089;23;20173;-85